Time;durP1;ratioP1;P1;durP2;ratioP2;P2;SDS_P1;SDS_P2;PMS_P1;PMS_P2;Temp;Humidity;BMP_temperature;BMP_pressure;BME280_temperature;BME280_humidity;BME280_pressure;Samples;Min_cycle;Max_cycle;Signal;HPM_P1;HPM_P2
2022/07/20 00:00:21;;;;;;;;;27.50;27.00;;;;;28.15;42.86;100954.69;5126985;27;48217;-82
2022/07/20 00:02:46;;;;;;;;;26.00;25.75;;;;;28.19;43.27;100959.06;5110609;27;44908;-82
2022/07/20 00:05:12;;;;;;;;;26.00;24.50;;;;;28.02;43.63;100931.72;5112025;27;45237;-82
2022/07/20 00:07:37;;;;;;;;;22.00;22.00;;;;;28.05;44.09;100950.53;5111141;27;45220;-80
2022/07/20 00:12:47;;;;;;;;;24.75;24.75;;;;;28.03;46.25;101001.06;5111555;27;45567;-86
2022/07/20 00:15:12;;;;;;;;;21.25;21.00;;;;;27.94;46.09;101033.78;5111349;27;45114;-86
2022/07/20 00:17:38;;;;;;;;;25.00;23.25;;;;;27.74;46.17;101056.94;5110761;27;45034;-82
2022/07/20 00:20:04;;;;;;;;;26.50;25.75;;;;;27.75;46.33;101106.44;5110688;27;47125;-84
2022/07/20 00:22:29;;;;;;;;;24.75;24.00;;;;;27.61;46.28;101119.44;5110841;27;45110;-82
2022/07/20 00:24:54;;;;;;;;;25.50;24.50;;;;;27.25;47.30;101098.88;5111025;27;45006;-86
2022/07/20 00:27:20;;;;;;;;;22.50;22.50;;;;;27.27;46.48;101117.72;5110523;27;45150;-87
2022/07/20 00:29:45;;;;;;;;;28.00;26.50;;;;;27.18;47.72;101118.84;5109710;27;47047;-85
2022/07/20 00:32:10;;;;;;;;;26.00;25.25;;;;;27.12;47.42;101096.56;5110044;27;45145;-84
2022/07/20 00:34:36;;;;;;;;;26.00;24.50;;;;;27.17;48.36;101089.22;5113091;27;45168;-84
2022/07/20 00:37:01;;;;;;;;;24.75;24.75;;;;;27.15;48.75;101062.28;5114469;27;44987;-85
2022/07/20 00:39:26;;;;;;;;;22.25;20.50;;;;;27.20;49.92;101040.56;5114837;27;45857;-85
2022/07/20 00:41:52;;;;;;;;;25.25;24.00;;;;;26.86;51.14;100965.97;5114319;27;45027;-85
2022/07/20 00:44:17;;;;;;;;;23.25;22.50;;;;;27.05;50.88;100987.03;5129466;27;45240;-82
2022/07/20 00:46:44;;;;;;;;;25.25;23.50;;;;;27.09;51.61;100994.97;5113820;27;44993;-84
2022/07/20 00:49:11;;;;;;;;;27.00;25.75;;;;;26.94;51.27;100969.31;5114294;27;45473;-86
2022/07/20 00:51:39;;;;;;;;;26.25;24.25;;;;;26.99;51.98;100986.28;5112943;27;45386;-84
2022/07/20 00:54:05;;;;;;;;;25.75;25.25;;;;;26.85;52.12;100975.00;5114448;27;45036;-86
2022/07/20 00:56:30;;;;;;;;;24.00;23.50;;;;;26.69;52.96;100944.88;5114209;27;45114;-84
2022/07/20 00:58:56;;;;;;;;;26.00;24.50;;;;;26.69;52.76;100954.78;5113818;27;46223;-86
2022/07/20 01:01:21;;;;;;;;;26.25;24.50;;;;;26.71;52.54;100961.03;5113621;27;45137;-85
2022/07/20 01:03:47;;;;;;;;;28.00;26.50;;;;;26.60;53.48;100941.56;5112617;27;45148;-86
2022/07/20 01:06:13;;;;;;;;;28.00;26.00;;;;;26.54;52.89;100931.81;5106677;27;45525;-85
2022/07/20 01:08:39;;;;;;;;;26.00;25.50;;;;;26.54;52.99;100917.47;5102293;27;46061;-85
2022/07/20 01:11:05;;;;;;;;;23.75;23.00;;;;;26.39;52.89;100913.34;5098909;27;45450;-86
2022/07/20 01:13:30;;;;;;;;;27.00;26.25;;;;;26.50;52.80;100946.31;5080837;27;45346;-86
2022/07/20 01:15:59;;;;;;;;;26.00;24.00;;;;;26.29;52.71;100915.44;5079170;27;45361;-85
2022/07/20 01:18:24;;;;;;;;;22.25;22.00;;;;;26.20;53.22;100913.84;5078431;27;45441;-85
2022/07/20 01:20:50;;;;;;;;;24.50;24.25;;;;;26.27;52.91;100937.97;5083173;27;45347;-86
2022/07/20 01:23:17;;;;;;;;;23.75;23.25;;;;;26.29;52.75;100953.16;5087824;27;45041;-85
2022/07/20 01:25:43;;;;;;;;;28.00;27.50;;;;;26.33;53.17;100970.13;5102867;27;45466;-84
2022/07/20 01:28:12;;;;;;;;;26.50;25.75;;;;;26.17;53.32;100938.22;5097125;27;46751;-86
2022/07/20 01:30:39;;;;;;;;;25.50;25.50;;;;;26.32;53.60;100941.44;5099966;27;45761;-85
2022/07/20 01:33:04;;;;;;;;;27.00;26.25;;;;;26.22;53.79;100925.50;5096490;27;45308;-85
2022/07/20 01:35:30;;;;;;;;;29.00;28.00;;;;;26.08;53.86;100900.75;5104436;27;45404;-85
2022/07/20 01:37:55;;;;;;;;;28.50;28.25;;;;;25.99;54.38;100899.16;5098471;27;46226;-85
2022/07/20 01:40:21;;;;;;;;;31.75;30.50;;;;;26.25;54.57;100962.25;5103347;27;46383;-85
2022/07/20 01:42:46;;;;;;;;;30.00;29.00;;;;;26.24;54.38;100974.84;5099723;27;45499;-85
2022/07/20 01:45:12;;;;;;;;;29.25;28.50;;;;;26.16;54.37;100968.78;5099126;27;45410;-86
2022/07/20 01:47:38;;;;;;;;;34.50;31.75;;;;;25.98;54.78;100935.13;5096437;27;48238;-85
2022/07/20 01:50:04;;;;;;;;;33.00;30.50;;;;;26.26;55.05;100982.03;5100104;27;45480;-85
2022/07/20 01:52:29;;;;;;;;;38.25;31.50;;;;;26.06;54.71;100960.94;5099607;27;45353;-85
2022/07/20 01:54:54;;;;;;;;;31.75;30.25;;;;;26.14;54.17;100999.38;5100358;27;45428;-85
2022/07/20 01:57:20;;;;;;;;;32.75;31.25;;;;;26.28;54.39;101043.03;5095021;27;46091;-85
2022/07/20 01:59:45;;;;;;;;;36.00;32.25;;;;;26.32;54.87;101070.78;5100995;27;45337;-84
2022/07/20 02:02:10;;;;;;;;;44.50;36.00;;;;;26.07;55.09;101030.09;5098199;27;45378;-86
2022/07/20 02:04:36;;;;;;;;;39.50;34.75;;;;;26.18;55.76;101026.19;5102934;27;45573;-84
2022/07/20 02:07:02;;;;;;;;;36.25;32.50;;;;;26.09;55.27;100982.44;5098312;27;47175;-85
2022/07/20 02:09:27;;;;;;;;;35.50;32.50;;;;;26.28;55.92;101012.50;5100758;27;45523;-85
2022/07/20 02:11:53;;;;;;;;;41.67;35.67;;;;;26.22;55.06;101019.81;5117377;27;45348;-86
2022/07/20 02:14:18;;;;;;;;;36.75;33.25;;;;;26.07;54.95;101014.81;5101532;27;45380;-84
2022/07/20 02:16:44;;;;;;;;;35.75;33.00;;;;;26.06;55.90;100996.88;5102373;27;45290;-85
2022/07/20 02:19:09;;;;;;;;;35.50;32.75;;;;;26.11;55.31;101029.09;5097452;27;45377;-84
2022/07/20 02:21:34;;;;;;;;;37.50;34.00;;;;;26.02;56.39;101030.22;5101333;27;45005;-86
2022/07/20 02:24:00;;;;;;;;;38.00;34.00;;;;;26.07;56.25;101054.34;5095860;27;45610;-85
2022/07/20 02:26:25;;;;;;;;;40.75;35.25;;;;;26.00;56.21;101061.66;5116305;27;46915;-85
2022/07/20 02:28:51;;;;;;;;;41.25;35.00;;;;;25.97;56.12;101059.94;5099006;27;45679;-85
2022/07/20 02:31:19;;;;;;;;;39.00;35.25;;;;;25.94;55.95;101065.41;5101751;27;45525;-83
2022/07/20 02:33:45;;;;;;;;;43.00;35.25;;;;;25.89;56.24;101071.81;5116005;27;45620;-86
2022/07/20 02:36:11;;;;;;;;;33.50;30.75;;;;;25.84;56.64;101068.34;5099468;27;45461;-86
2022/07/20 02:38:37;;;;;;;;;38.50;33.75;;;;;25.77;56.55;101064.94;5102242;27;45315;-84
2022/07/20 02:41:02;;;;;;;;;33.75;31.00;;;;;25.95;56.92;101117.47;5102384;27;44946;-85
2022/07/20 02:43:28;;;;;;;;;43.00;35.25;;;;;25.76;56.38;101103.50;5096708;27;45437;-85
2022/07/20 02:45:53;;;;;;;;;43.50;35.75;;;;;25.76;56.41;101118.78;5098769;27;46618;-84
2022/07/20 02:48:18;;;;;;;;;42.25;35.25;;;;;25.60;57.15;101097.56;5096647;27;45278;-86
2022/07/20 02:50:44;;;;;;;;;43.00;35.00;;;;;25.62;58.14;101106.50;5105379;27;45241;-87
2022/07/20 02:53:12;;;;;;;;;41.25;35.25;;;;;25.73;57.45;101133.19;5095267;27;45526;-85
2022/07/20 02:55:39;;;;;;;;;35.25;32.00;;;;;25.83;57.78;101159.03;5097655;27;47340;-86
2022/07/20 02:58:04;;;;;;;;;39.50;35.00;;;;;25.89;57.92;101185.81;5096328;27;45952;-85
2022/07/20 03:00:31;;;;;;;;;38.75;34.75;;;;;25.65;57.74;101156.69;5102712;27;45710;-84
2022/07/20 03:02:57;;;;;;;;;38.00;35.00;;;;;25.69;57.56;101177.25;5098564;27;45397;-86
2022/07/20 03:05:23;;;;;;;;;42.25;36.25;;;;;25.93;57.50;101217.16;5099047;27;45417;-85
2022/07/20 03:07:48;;;;;;;;;46.25;38.25;;;;;25.70;57.04;101170.94;5099445;27;45268;-86
2022/07/20 03:10:14;;;;;;;;;45.25;38.25;;;;;25.73;57.56;101177.16;5118430;27;45475;-85
2022/07/20 03:12:39;;;;;;;;;45.75;38.75;;;;;25.83;56.66;101212.88;5097040;27;45436;-86
2022/07/20 03:15:06;;;;;;;;;42.50;36.50;;;;;25.74;57.22;101195.06;5114272;27;47345;-84
2022/07/20 03:17:31;;;;;;;;;44.50;37.50;;;;;25.71;56.17;101186.16;5111948;27;45415;-84
2022/07/20 03:19:57;;;;;;;;;40.00;35.00;;;;;25.88;56.98;101204.72;5117304;27;45571;-86
2022/07/20 03:22:23;;;;;;;;;13.25;12.00;;;;;25.81;55.10;101203.06;5113323;27;45449;-85
2022/07/20 03:24:48;;;;;;;;;26.00;25.50;;;;;25.51;55.73;101153.41;5100041;27;45383;-84
2022/07/20 03:27:14;;;;;;;;;21.25;21.25;;;;;25.70;54.29;101192.47;5097975;27;45519;-84
2022/07/20 03:29:39;;;;;;;;;22.25;21.75;;;;;25.46;54.53;101162.44;5098670;27;45360;-85
2022/07/20 03:32:05;;;;;;;;;19.50;18.25;;;;;25.41;53.67;101169.72;5098708;27;45369;-85
2022/07/20 03:34:30;;;;;;;;;16.75;16.75;;;;;25.57;53.67;101205.31;5100877;27;45698;-85
2022/07/20 03:36:55;;;;;;;;;18.75;18.75;;;;;25.51;53.11;101188.38;5100625;27;45680;-84
2022/07/20 03:39:21;;;;;;;;;18.50;17.00;;;;;25.45;53.60;101181.31;5097157;27;45650;-85
2022/07/20 03:41:46;;;;;;;;;15.00;15.00;;;;;25.42;53.50;101192.16;5099580;27;45418;-84
2022/07/20 03:44:12;;;;;;;;;17.25;16.50;;;;;25.38;53.37;101185.06;5094032;27;46899;-85
2022/07/20 03:46:37;;;;;;;;;17.50;16.50;;;;;25.36;53.77;101174.31;5098649;27;45267;-84
2022/07/20 03:49:03;;;;;;;;;20.00;20.00;;;;;25.47;54.78;101206.44;5097040;27;45623;-87
2022/07/20 03:51:28;;;;;;;;;16.75;16.75;;;;;25.30;55.30;101211.22;5117297;27;45497;-86
2022/07/20 03:53:54;;;;;;;;;19.25;18.50;;;;;25.29;56.61;101236.38;5096007;27;46134;-85
2022/07/20 03:56:19;;;;;;;;;14.00;12.75;;;;;24.98;56.40;101234.19;5114061;27;45456;-85
2022/07/20 03:58:44;;;;;;;;;14.00;13.25;;;;;24.95;57.22;101245.88;5100588;27;45398;-84
2022/07/20 04:01:10;;;;;;;;;13.00;12.50;;;;;25.09;57.03;101277.06;5099695;27;45476;-85
2022/07/20 04:03:35;;;;;;;;;17.50;15.50;;;;;24.79;57.61;101220.16;5097435;27;47556;-85
2022/07/20 04:06:01;;;;;;;;;15.25;14.75;;;;;24.79;57.91;101227.34;5113578;27;45374;-84
2022/07/20 04:08:27;;;;;;;;;15.75;14.00;;;;;24.74;58.41;101231.91;5097367;27;45493;-84
2022/07/20 04:10:53;;;;;;;;;16.25;15.25;;;;;24.66;58.79;101213.19;5107420;27;45256;-84
2022/07/20 04:13:18;;;;;;;;;15.00;13.75;;;;;24.43;58.76;101178.59;5098943;27;45465;-84
2022/07/20 04:15:43;;;;;;;;;15.75;13.00;;;;;24.41;59.56;101197.44;5100935;27;45521;-84
2022/07/20 04:18:08;;;;;;;;;15.75;13.25;;;;;24.49;59.90;101193.78;5098945;27;45550;-84
2022/07/20 04:20:34;;;;;;;;;17.50;15.00;;;;;24.44;59.36;101188.47;5105243;27;45510;-84
2022/07/20 04:22:59;;;;;;;;;17.50;16.50;;;;;24.24;60.23;101145.75;5100027;27;45349;-85
2022/07/20 04:25:24;;;;;;;;;15.50;15.00;;;;;24.31;60.34;101163.53;5119736;27;45389;-84
2022/07/20 04:27:50;;;;;;;;;15.50;15.50;;;;;24.28;61.99;101177.00;5098954;27;45507;-85
2022/07/20 04:30:16;;;;;;;;;17.25;15.00;;;;;24.21;61.30;101164.59;5106450;27;45414;-85
2022/07/20 04:32:42;;;;;;;;;16.50;14.25;;;;;24.25;61.37;101152.91;5116563;27;49141;-84
2022/07/20 04:35:08;;;;;;;;;15.00;13.25;;;;;24.32;61.69;101165.31;5101567;27;45384;-85
2022/07/20 04:37:33;;;;;;;;;16.75;16.25;;;;;24.24;61.47;101142.19;5097831;27;45415;-84
2022/07/20 04:39:58;;;;;;;;;16.50;15.00;;;;;24.07;62.19;101099.47;5102053;27;45430;-84
2022/07/20 04:42:24;;;;;;;;;15.75;15.25;;;;;24.11;62.03;101090.44;5097617;27;47560;-85
2022/07/20 04:44:49;;;;;;;;;16.25;14.75;;;;;24.11;62.32;101118.19;5101765;27;45357;-85
2022/07/20 04:47:14;;;;;;;;;15.00;14.00;;;;;24.02;62.14;101123.69;5098894;27;45447;-85
2022/07/20 04:49:40;;;;;;;;;19.75;19.00;;;;;24.07;62.58;101131.69;5098971;27;45491;-84
2022/07/20 04:52:05;;;;;;;;;17.50;17.00;;;;;24.04;62.96;101155.88;5117302;27;47546;-84
2022/07/20 04:54:30;;;;;;;;;19.50;16.50;;;;;24.10;62.98;101198.78;5099469;27;45422;-84
2022/07/20 04:56:56;;;;;;;;;20.00;18.00;;;;;24.11;63.10;101228.31;5103821;27;45507;-85
2022/07/20 04:59:21;;;;;;;;;20.25;16.75;;;;;23.92;62.00;101200.81;5100096;27;45396;-84
2022/07/20 05:01:46;;;;;;;;;20.25;18.25;;;;;23.99;62.04;101220.44;5100083;27;46968;-84
2022/07/20 05:04:12;;;;;;;;;18.75;17.75;;;;;23.95;63.17;101205.25;5098744;27;45592;-85
2022/07/20 05:06:37;;;;;;;;;20.25;19.25;;;;;24.02;63.36;101232.91;5102789;27;45405;-85
2022/07/20 05:09:06;;;;;;;;;21.75;20.25;;;;;24.05;63.43;101220.34;5098308;27;45391;-85
2022/07/20 05:11:32;;;;;;;;;20.00;17.50;;;;;23.88;63.22;101203.53;5119940;27;47045;-84
2022/07/20 05:13:57;;;;;;;;;18.25;18.00;;;;;23.89;62.87;101225.03;5098092;27;45416;-84
2022/07/20 05:16:23;;;;;;;;;19.50;19.50;;;;;23.90;63.51;101234.84;5098114;27;45335;-84
2022/07/20 05:18:48;;;;;;;;;19.25;17.50;;;;;23.98;63.10;101197.13;5100847;27;45321;-85
2022/07/20 05:21:13;;;;;;;;;20.00;19.25;;;;;23.89;63.36;101157.91;5100446;27;45523;-84
2022/07/20 05:23:39;;;;;;;;;22.25;22.00;;;;;23.79;62.94;101107.03;5098716;27;45460;-84
2022/07/20 05:26:04;;;;;;;;;19.50;18.75;;;;;24.05;63.06;101114.72;5099648;27;45449;-85
2022/07/20 05:28:30;;;;;;;;;20.25;18.50;;;;;24.04;63.24;101108.47;5097546;27;45361;-84
2022/07/20 05:30:55;;;;;;;;;21.75;20.00;;;;;23.84;63.10;101110.53;5103377;27;45680;-84
2022/07/20 05:33:23;;;;;;;;;23.25;22.50;;;;;23.99;64.53;101180.16;5096476;27;45491;-84
2022/07/20 05:35:49;;;;;;;;;18.00;17.25;;;;;23.82;63.93;101155.31;5099915;27;45401;-85
2022/07/20 05:38:16;;;;;;;;;20.00;20.00;;;;;23.80;64.41;101149.09;5113624;27;45557;-85
2022/07/20 05:40:41;;;;;;;;;21.00;19.50;;;;;23.87;63.92;101162.38;5103888;27;45446;-85
2022/07/20 05:43:07;;;;;;;;;20.25;19.00;;;;;23.94;63.33;101165.91;5098550;27;45578;-85
2022/07/20 05:45:32;;;;;;;;;22.75;19.75;;;;;23.78;64.57;101141.03;5099039;27;45342;-85
2022/07/20 05:47:58;;;;;;;;;22.50;22.25;;;;;23.93;64.08;101167.66;5097629;27;45398;-84
2022/07/20 05:50:23;;;;;;;;;22.75;21.00;;;;;23.77;64.60;101160.72;5100647;27;45504;-84
2022/07/20 05:52:49;;;;;;;;;22.25;21.25;;;;;23.89;63.72;101202.63;5101855;27;44942;-84
2022/07/20 05:55:14;;;;;;;;;19.25;19.25;;;;;23.81;63.40;101196.50;5099442;27;45345;-85
2022/07/20 05:57:39;;;;;;;;;23.75;22.00;;;;;23.88;64.16;101199.06;5101380;27;45329;-84
2022/07/20 06:00:05;;;;;;;;;21.75;20.00;;;;;23.88;63.40;101174.00;5098874;27;49508;-84
2022/07/20 06:02:31;;;;;;;;;20.00;18.75;;;;;23.73;63.33;101147.38;5095942;27;45990;-85
2022/07/20 06:04:56;;;;;;;;;20.75;20.75;;;;;23.79;63.93;101176.81;5098824;27;45378;-84
2022/07/20 06:07:22;;;;;;;;;22.33;20.00;;;;;23.75;63.62;101177.78;5097593;27;51268;-85
2022/07/20 06:09:47;;;;;;;;;20.50;19.00;;;;;23.81;63.32;101188.44;5101039;27;47742;-84
2022/07/20 06:12:13;;;;;;;;;21.33;21.33;;;;;23.71;63.09;101173.34;5098529;27;52353;-85
2022/07/20 06:14:38;;;;;;;;;24.00;22.50;;;;;23.80;63.11;101194.72;5098982;27;45380;-85
2022/07/20 06:17:03;;;;;;;;;28.50;25.50;;;;;23.74;62.73;101209.06;5099465;27;45445;-84
2022/07/20 06:19:29;;;;;;;;;25.50;22.50;;;;;23.62;63.27;101218.16;5098055;27;46493;-84
2022/07/20 06:21:54;;;;;;;;;25.75;25.50;;;;;23.48;62.75;101209.34;5100917;27;45701;-84
2022/07/20 06:24:19;;;;;;;;;29.50;26.25;;;;;23.60;62.97;101273.63;5100325;27;44941;-84
2022/07/20 06:26:46;;;;;;;;;22.00;21.75;;;;;23.65;62.98;101309.41;5100888;27;45636;-85
2022/07/20 06:29:11;;;;;;;;;22.25;22.25;;;;;23.37;62.87;101270.28;5097585;27;45408;-85
2022/07/20 06:31:36;;;;;;;;;21.50;21.50;;;;;23.42;63.22;101277.38;5097831;27;45426;-84
2022/07/20 06:34:04;;;;;;;;;16.50;16.50;;;;;23.37;62.64;101273.88;5113135;27;45457;-85
2022/07/20 06:36:30;;;;;;;;;25.25;24.25;;;;;23.48;63.29;101326.53;5098592;27;45666;-85
2022/07/20 06:38:55;;;;;;;;;22.50;22.50;;;;;23.25;63.68;101289.16;5097659;27;46986;-84
2022/07/20 06:41:20;;;;;;;;;23.00;21.25;;;;;23.29;64.20;101296.28;5099017;27;45319;-84
2022/07/20 06:43:45;;;;;;;;;25.00;23.75;;;;;23.11;63.54;101244.63;5098987;27;45561;-84
2022/07/20 06:46:11;;;;;;;;;22.25;21.75;;;;;23.45;63.44;101297.94;5097835;27;45425;-83
2022/07/20 06:48:36;;;;;;;;;19.75;19.50;;;;;23.35;63.28;101277.44;5100202;27;46294;-84
2022/07/20 06:51:02;;;;;;;;;20.50;20.00;;;;;23.06;63.43;101221.44;5102046;27;45388;-84
2022/07/20 06:53:27;;;;;;;;;22.25;21.25;;;;;23.25;63.84;101265.03;5097787;27;45354;-84
2022/07/20 06:55:53;;;;;;;;;24.75;23.25;;;;;23.21;64.10;101249.91;5097263;27;45333;-84
2022/07/20 06:58:18;;;;;;;;;23.50;21.00;;;;;23.28;64.07;101278.44;5096079;27;46406;-84
2022/07/20 07:00:43;;;;;;;;;22.25;20.25;;;;;23.08;64.17;101231.22;5098605;27;45230;-84
2022/07/20 07:03:09;;;;;;;;;25.00;22.50;;;;;23.11;64.56;101231.22;5097064;27;45345;-85
2022/07/20 07:05:34;;;;;;;;;25.75;24.00;;;;;23.18;64.35;101246.31;5113363;27;45417;-84
2022/07/20 07:08:00;;;;;;;;;19.25;19.00;;;;;23.17;64.64;101252.59;5094759;27;47439;-84
2022/07/20 07:10:25;;;;;;;;;21.75;21.50;;;;;23.12;64.83;101246.38;5102157;27;44979;-82
2022/07/20 07:12:51;;;;;;;;;19.50;19.00;;;;;23.15;65.02;101257.09;5098155;27;45482;-84
2022/07/20 07:15:17;;;;;;;;;22.25;21.50;;;;;23.01;64.90;101218.78;5113134;27;45681;-84
2022/07/20 07:17:43;;;;;;;;;26.75;24.00;;;;;23.24;64.80;101233.75;5096509;27;45564;-83
2022/07/20 07:20:09;;;;;;;;;25.00;24.00;;;;;23.04;64.94;101181.22;5100832;27;45548;-84
2022/07/20 07:22:34;;;;;;;;;26.50;24.75;;;;;23.05;64.60;101222.31;5112747;27;45421;-83
2022/07/20 07:25:00;;;;;;;;;24.25;24.00;;;;;22.91;65.51;101223.34;5099772;27;45585;-85
2022/07/20 07:27:25;;;;;;;;;28.50;26.50;;;;;23.02;65.65;101225.94;5095646;27;46319;-85
2022/07/20 07:29:50;;;;;;;;;22.75;21.75;;;;;23.16;65.14;101241.91;5099935;27;45480;-84
2022/07/20 07:32:16;;;;;;;;;23.50;23.00;;;;;23.26;65.71;101273.09;5097825;27;45364;-85
2022/07/20 07:34:41;;;;;;;;;25.25;22.75;;;;;23.20;65.49;101256.13;5097069;27;45361;-85
2022/07/20 07:37:07;;;;;;;;;22.75;22.75;;;;;23.25;65.65;101275.75;5099094;27;45387;-85
2022/07/20 07:39:32;;;;;;;;;26.00;25.00;;;;;23.36;65.32;101290.88;5094254;27;45417;-84
2022/07/20 07:41:58;;;;;;;;;23.00;22.50;;;;;23.34;65.70;101268.50;5098569;27;45380;-85
2022/07/20 07:44:23;;;;;;;;;21.50;21.50;;;;;23.50;64.62;101293.44;5097286;27;45465;-85
2022/07/20 07:46:48;;;;;;;;;25.00;24.75;;;;;23.48;64.67;101281.81;5104674;27;45354;-85
2022/07/20 07:49:14;;;;;;;;;25.00;24.00;;;;;23.65;63.65;101317.47;5099877;27;45531;-85
2022/07/20 07:51:40;;;;;;;;;29.50;27.25;;;;;23.53;63.32;101305.91;5102528;27;45435;-85
2022/07/20 07:54:05;;;;;;;;;22.50;21.50;;;;;23.53;63.60;101320.22;5099838;27;45503;-84
2022/07/20 07:56:31;;;;;;;;;23.75;22.00;;;;;23.26;64.21;101296.34;5099429;27;46468;-83
2022/07/20 07:58:56;;;;;;;;;23.75;22.75;;;;;23.22;64.60;101283.84;5102240;27;45294;-84
2022/07/20 08:01:22;;;;;;;;;23.50;23.25;;;;;23.58;64.87;101336.28;5117906;27;45403;-85
2022/07/20 08:03:47;;;;;;;;;21.75;20.75;;;;;23.56;63.86;101306.78;5115892;27;45550;-85
2022/07/20 08:06:13;;;;;;;;;26.00;24.25;;;;;23.46;64.12;101288.09;5100131;27;45547;-83
2022/07/20 08:08:38;;;;;;;;;22.75;22.75;;;;;23.79;64.34;101332.50;5100225;27;45330;-85
2022/07/20 08:11:04;;;;;;;;;25.00;23.25;;;;;23.66;64.24;101308.50;5107427;27;45293;-84
2022/07/20 08:13:29;;;;;;;;;27.25;25.25;;;;;23.91;64.52;101324.34;5099512;27;45751;-85
2022/07/20 08:15:55;;;;;;;;;24.00;22.50;;;;;23.80;64.11;101304.78;5099331;27;47824;-85
2022/07/20 08:18:20;;;;;;;;;24.25;22.75;;;;;23.61;63.05;101271.84;5099003;27;45314;-83
2022/07/20 08:20:46;;;;;;;;;28.50;27.00;;;;;23.80;63.15;101326.25;5107721;27;44897;-84
2022/07/20 08:23:11;;;;;;;;;29.25;26.75;;;;;23.88;63.16;101341.34;5099022;27;45405;-86
2022/07/20 08:25:37;;;;;;;;;27.25;23.00;;;;;23.60;63.33;101278.13;5099089;27;45591;-84
2022/07/20 08:28:14;;;;;;;;;29.00;28.00;;;;;23.79;63.06;101306.59;5100920;27;45361;-85
2022/07/20 08:30:42;;;;;;;;;28.00;26.25;;;;;23.77;62.92;101299.44;5102925;27;44969;-86
2022/07/20 08:33:09;;;;;;;;;25.50;24.50;;;;;23.86;63.61;101323.50;5100274;27;45381;-84
2022/07/20 08:35:34;;;;;;;;;27.00;26.75;;;;;23.80;63.34;101312.84;5115465;27;47284;-85
2022/07/20 08:38:00;;;;;;;;;25.75;25.50;;;;;23.87;63.39;101333.31;5097515;27;45830;-85
2022/07/20 08:40:27;;;;;;;;;25.50;25.00;;;;;23.87;62.92;101317.22;5101105;27;45380;-85
2022/07/20 08:42:53;;;;;;;;;24.00;22.75;;;;;23.75;62.89;101298.56;5100974;27;45332;-85
2022/07/20 08:45:18;;;;;;;;;25.00;22.50;;;;;23.87;62.36;101333.31;5101526;27;46784;-84
2022/07/20 08:47:45;;;;;;;;;23.50;23.00;;;;;23.98;62.06;101347.50;5114563;27;45639;-85
2022/07/20 08:50:11;;;;;;;;;23.25;23.25;;;;;23.84;62.70;101296.69;5103141;27;45280;-85
2022/07/20 08:52:36;;;;;;;;;24.25;23.75;;;;;24.17;62.96;101329.41;5098596;27;45457;-84
2022/07/20 08:55:02;;;;;;;;;23.00;22.00;;;;;24.28;62.22;101326.56;5100936;27;45715;-84
2022/07/20 08:57:30;;;;;;;;;24.75;23.75;;;;;24.27;62.00;101312.25;5098743;27;46207;-85
2022/07/20 08:59:55;;;;;;;;;20.75;19.75;;;;;24.09;61.16;101280.28;5101263;27;45512;-86
2022/07/20 09:02:21;;;;;;;;;18.75;18.50;;;;;24.14;61.25;101284.69;5099184;27;45543;-83
2022/07/20 09:04:54;;;;;;;;;20.25;20.25;;;;;24.43;61.54;101329.09;5116547;27;51691;-84
2022/07/20 09:07:39;;;;;;;;;21.50;21.00;;;;;24.47;61.36;101330.84;5098705;27;45648;-85
2022/07/20 09:10:08;;;;;;;;;21.75;18.50;;;;;24.47;60.86;101309.34;5121762;27;45409;-84
2022/07/20 09:12:59;;;;;;;;;18.00;17.25;;;;;24.53;61.33;101306.59;5101236;27;45330;-85
2022/07/20 09:15:26;;;;;;;;;21.00;19.50;;;;;24.63;60.76;101308.22;5101927;27;45379;-85
2022/07/20 09:18:04;;;;;;;;;18.25;17.25;;;;;24.60;61.89;101288.56;5099770;27;45369;-85
2022/07/20 09:20:31;;;;;;;;;21.50;19.50;;;;;24.56;61.36;101286.81;5117534;27;45345;-84
2022/07/20 09:23:02;;;;;;;;;9.50;8.50;;;;;24.62;60.76;101300.16;5100962;27;45449;-85
2022/07/20 09:25:27;;;;;;;;;18.75;18.50;;;;;24.69;60.24;101332.31;5101546;27;46070;-85
2022/07/20 09:27:53;;;;;;;;;14.00;13.50;;;;;24.52;60.53;101307.47;5095575;27;45558;-85
2022/07/20 09:30:18;;;;;;;;;15.00;14.25;;;;;24.36;60.98;101301.44;5100597;27;45520;-85
2022/07/20 09:32:57;;;;;;;;;12.75;12.00;;;;;24.43;60.01;101324.63;5096498;27;45570;-86
2022/07/20 09:35:27;;;;;;;;;14.50;13.50;;;;;24.26;60.63;101314.97;5099017;27;45796;-84
2022/07/20 09:37:55;;;;;;;;;14.25;13.25;;;;;24.22;60.76;101334.72;5096005;27;45565;-85
2022/07/20 09:40:20;;;;;;;;;14.50;14.00;;;;;24.06;60.47;101325.97;5099682;27;45517;-84
2022/07/20 09:42:47;;;;;;;;;14.75;13.25;;;;;23.95;61.14;101328.78;5098569;27;45684;-84
2022/07/20 09:45:29;;;;;;;;;14.75;14.25;;;;;23.96;61.12;101340.41;5115412;27;47951;-84
2022/07/20 09:48:06;;;;;;;;;13.75;13.75;;;;;24.01;61.72;101357.34;5095886;27;45723;-84
2022/07/20 09:50:35;;;;;;;;;13.50;12.75;;;;;23.88;62.32;101340.47;5117106;27;45527;-84
2022/07/20 09:53:00;;;;;;;;;11.75;11.75;;;;;24.02;61.54;101359.13;5100458;27;45364;-85
2022/07/20 09:55:26;;;;;;;;;14.75;13.25;;;;;23.83;62.01;101320.84;5114071;27;47288;-84
2022/07/20 09:57:53;;;;;;;;;11.75;11.00;;;;;23.94;60.71;101345.78;5096856;27;45491;-84
2022/07/20 10:00:19;;;;;;;;;9.75;9.00;;;;;23.94;61.72;101357.44;5100432;27;45073;-84
2022/07/20 10:02:50;;;;;;;;;11.25;11.25;;;;;23.91;61.75;101329.72;5096588;27;45528;-85
2022/07/20 10:05:19;;;;;;;;;10.75;10.25;;;;;24.08;61.37;101351.88;5114165;27;47503;-84
2022/07/20 10:07:45;;;;;;;;;11.75;11.00;;;;;23.91;60.61;101324.34;5094836;27;45425;-84
2022/07/20 10:10:11;;;;;;;;;9.25;8.50;;;;;24.04;60.84;101354.59;5117917;27;45591;-84
2022/07/20 10:12:37;;;;;;;;;11.00;11.00;;;;;24.06;60.93;101356.38;5098670;27;45401;-84
2022/07/20 10:15:07;;;;;;;;;13.00;11.00;;;;;23.94;60.51;101352.06;5105468;27;45503;-84
2022/07/20 10:17:33;;;;;;;;;10.00;9.75;;;;;23.89;61.29;101351.22;5095660;27;45996;-84
2022/07/20 10:19:59;;;;;;;;;12.50;12.00;;;;;24.03;61.53;101380.56;5099344;27;45360;-84
2022/07/20 10:22:25;;;;;;;;;12.25;10.50;;;;;23.86;60.93;101353.03;5096892;27;45416;-85
2022/07/20 10:25:21;;;;;;;;;8.25;8.25;;;;;24.03;60.97;101380.56;5098719;27;45436;-85
2022/07/20 10:27:46;;;;;;;;;9.75;9.75;;;;;23.83;61.10;101336.94;5088304;27;46078;-85
2022/07/20 10:30:17;;;;;;;;;9.75;9.75;;;;;23.91;60.96;101335.97;5100278;27;45412;-85
2022/07/20 10:32:56;;;;;;;;;11.25;11.00;;;;;23.72;61.22;101295.91;5097415;27;45571;-85
2022/07/20 10:35:30;;;;;;;;;10.00;9.25;;;;;23.79;60.94;101325.38;5113640;27;47268;-86
2022/07/20 10:37:56;;;;;;;;;9.25;9.00;;;;;23.93;60.48;101349.34;5097276;27;46052;-85
2022/07/20 10:40:24;;;;;;;;;11.25;10.00;;;;;23.70;60.36;101324.56;5103080;27;45468;-84
2022/07/20 10:42:53;;;;;;;;;9.25;9.25;;;;;23.71;61.02;101348.72;5100597;27;45466;-84
2022/07/20 10:47:46;;;;;;;;;12.00;11.00;;;;;23.72;61.66;101352.28;5096165;27;45377;-84
2022/07/20 10:50:18;;;;;;;;;13.00;10.75;;;;;23.87;61.21;101378.97;5115467;27;45563;-84
2022/07/20 10:52:45;;;;;;;;;11.25;10.50;;;;;23.88;61.61;101383.44;5097791;27;45636;-84
2022/07/20 10:55:33;;;;;;;;;12.25;12.00;;;;;23.87;61.37;101370.91;5097502;27;47964;-85
2022/07/20 10:58:02;;;;;;;;;13.00;12.00;;;;;23.92;61.68;101375.31;5096207;27;45360;-84
2022/07/20 11:00:36;;;;;;;;;10.50;10.00;;;;;24.02;61.47;101370.75;5115690;27;45511;-86
2022/07/20 11:03:04;;;;;;;;;13.25;13.00;;;;;24.01;61.09;101387.78;5096809;27;45430;-85
2022/07/20 11:05:29;;;;;;;;;12.25;11.00;;;;;23.89;61.57;101371.78;5095473;27;47162;-84
2022/07/20 11:07:55;;;;;;;;;14.75;13.25;;;;;23.76;61.36;101357.59;5100785;27;45363;-85
2022/07/20 11:10:27;;;;;;;;;11.25;11.25;;;;;23.84;61.80;101370.94;5101150;27;45511;-85